Terminal Aerodrome Forecast
Issued by NWS

Home | Current Version | Previous Version | Text Only | Print | Product List | Glossary Off
Versions: 1 2 3 4 5 6 7 8 9 10 11 12 13 14 15 16 17 18 19 20 21 22

000
FTUS43 KBIS 271100
TAFDIK
TAF
KDIK 271127Z 2712/2812 16013KT P6SM SCT005 SCT035 OVC100
      TEMPO 2712/2715 -SN BKN005 OVC035
     FM271500 14009KT P6SM -SN SCT005 OVC015
      TEMPO 2715/2718 3SM -SN BR BKN005 OVC015
     FM271800 15015KT 6SM -FZRASG BR OVC010
     FM272100 17012KT P6SM OVC015
     FM280200 19010KT P6SM SCT020 BKN070=

USA.gov is the U.S. government's official web portal to all federal, state and local government web resources and services.